sensor_id;sensor_type;location;lat;lon;timestamp;pressure;altitude;pressure_sealevel;temperature;humidity
9822;BME280;4950;46.042;14.472;2023-05-20T00:00:21;98282.56;;;14.31;93.86
9822;BME280;4950;46.042;14.472;2023-05-20T00:02:48;98282.72;;;14.29;93.61
9822;BME280;4950;46.042;14.472;2023-05-20T00:05:14;98291.41;;;14.30;93.75
9822;BME280;4950;46.042;14.472;2023-05-20T00:07:41;98286.97;;;14.30;93.54
9822;BME280;4950;46.042;14.472;2023-05-20T00:10:09;98287.59;;;14.32;93.86
9822;BME280;4950;46.042;14.472;2023-05-20T00:12:38;98287.78;;;14.31;93.93
9822;BME280;4950;46.042;14.472;2023-05-20T00:15:05;98281.56;;;14.32;94.05
9822;BME280;4950;46.042;14.472;2023-05-20T00:17:32;98284.19;;;14.32;94.59
9822;BME280;4950;46.042;14.472;2023-05-20T00:19:59;98277.72;;;14.28;94.90
9822;BME280;4950;46.042;14.472;2023-05-20T00:22:25;98280.97;;;14.30;95.07
9822;BME280;4950;46.042;14.472;2023-05-20T00:24:52;98282.72;;;14.29;95.11
9822;BME280;4950;46.042;14.472;2023-05-20T00:27:18;98285.31;;;14.22;95.14
9822;BME280;4950;46.042;14.472;2023-05-20T00:29:46;98275.03;;;14.21;95.24
9822;BME280;4950;46.042;14.472;2023-05-20T00:32:13;98282.06;;;14.20;95.34
9822;BME280;4950;46.042;14.472;2023-05-20T00:34:41;98281.06;;;14.21;95.38
9822;BME280;4950;46.042;14.472;2023-05-20T00:37:08;98282.69;;;14.22;95.38
9822;BME280;4950;46.042;14.472;2023-05-20T00:39:34;98286.09;;;14.23;95.51
9822;BME280;4950;46.042;14.472;2023-05-20T00:42:01;98282.69;;;14.22;95.21
9822;BME280;4950;46.042;14.472;2023-05-20T00:44:28;98275.63;;;14.16;95.67
9822;BME280;4950;46.042;14.472;2023-05-20T00:46:56;98285.03;;;14.17;95.66
9822;BME280;4950;46.042;14.472;2023-05-20T00:49:22;98279.19;;;14.15;95.85
9822;BME280;4950;46.042;14.472;2023-05-20T00:51:49;98281.63;;;14.17;95.82
9822;BME280;4950;46.042;14.472;2023-05-20T00:54:16;98282.25;;;13.97;96.54
9822;BME280;4950;46.042;14.472;2023-05-20T00:56:43;98285.25;;;13.94;96.93
9822;BME280;4950;46.042;14.472;2023-05-20T00:59:10;98280.44;;;13.98;96.87
9822;BME280;4950;46.042;14.472;2023-05-20T01:01:37;98283.06;;;13.98;96.43
9822;BME280;4950;46.042;14.472;2023-05-20T01:04:05;98278.13;;;13.88;96.64
9822;BME280;4950;46.042;14.472;2023-05-20T01:06:31;98278.06;;;13.81;97.32
9822;BME280;4950;46.042;14.472;2023-05-20T01:08:58;98277.72;;;13.85;97.36
9822;BME280;4950;46.042;14.472;2023-05-20T01:11:27;98281.31;;;13.83;97.16
9822;BME280;4950;46.042;14.472;2023-05-20T01:13:58;98272.69;;;13.83;97.31
9822;BME280;4950;46.042;14.472;2023-05-20T01:16:27;98270.06;;;13.83;97.50
9822;BME280;4950;46.042;14.472;2023-05-20T01:18:58;98264.47;;;13.86;97.61
9822;BME280;4950;46.042;14.472;2023-05-20T01:21:29;98267.69;;;13.88;97.38
9822;BME280;4950;46.042;14.472;2023-05-20T01:23:57;98259.50;;;13.91;97.43
9822;BME280;4950;46.042;14.472;2023-05-20T01:26:25;98262.91;;;13.92;97.09
9822;BME280;4950;46.042;14.472;2023-05-20T01:28:52;98265.53;;;13.92;97.17
9822;BME280;4950;46.042;14.472;2023-05-20T01:31:23;98262.91;;;13.92;97.31
9822;BME280;4950;46.042;14.472;2023-05-20T01:33:55;98252.28;;;13.93;97.27
9822;BME280;4950;46.042;14.472;2023-05-20T01:36:22;98253.72;;;13.96;97.07
9822;BME280;4950;46.042;14.472;2023-05-20T01:38:49;98248.50;;;13.96;97.15
9822;BME280;4950;46.042;14.472;2023-05-20T01:41:18;98245.88;;;13.96;97.17
9822;BME280;4950;46.042;14.472;2023-05-20T01:43:46;98250.13;;;13.97;97.03
9822;BME280;4950;46.042;14.472;2023-05-20T01:46:14;98241.28;;;13.98;96.89
9822;BME280;4950;46.042;14.472;2023-05-20T01:48:40;98248.13;;;13.99;97.09
9822;BME280;4950;46.042;14.472;2023-05-20T01:51:07;98242.13;;;13.98;97.05
9822;BME280;4950;46.042;14.472;2023-05-20T01:53:34;98241.72;;;14.01;96.90
9822;BME280;4950;46.042;14.472;2023-05-20T01:56:00;98243.66;;;13.93;96.86
9822;BME280;4950;46.042;14.472;2023-05-20T01:58:28;98241.69;;;13.95;97.17
9822;BME280;4950;46.042;14.472;2023-05-20T02:00:55;98232.84;;;13.96;96.85
9822;BME280;4950;46.042;14.472;2023-05-20T02:03:21;98234.03;;;13.93;96.80
9822;BME280;4950;46.042;14.472;2023-05-20T02:05:48;98230.00;;;13.91;97.25
9822;BME280;4950;46.042;14.472;2023-05-20T02:08:14;98240.03;;;13.94;97.22
9822;BME280;4950;46.042;14.472;2023-05-20T02:10:41;98227.44;;;13.97;97.01
9822;BME280;4950;46.042;14.472;2023-05-20T02:13:08;98233.28;;;13.99;96.87
9822;BME280;4950;46.042;14.472;2023-05-20T02:15:40;98230.84;;;13.98;96.65
9822;BME280;4950;46.042;14.472;2023-05-20T02:18:06;98238.50;;;13.99;96.90
9822;BME280;4950;46.042;14.472;2023-05-20T02:20:34;98235.88;;;13.99;96.93
9822;BME280;4950;46.042;14.472;2023-05-20T02:23:01;98221.03;;;14.00;96.78
9822;BME280;4950;46.042;14.472;2023-05-20T02:25:30;98228.84;;;14.00;96.45
9822;BME280;4950;46.042;14.472;2023-05-20T02:27:56;98221.84;;;14.00;96.85
9822;BME280;4950;46.042;14.472;2023-05-20T02:30:23;98222.66;;;14.01;96.62
9822;BME280;4950;46.042;14.472;2023-05-20T02:32:51;98225.25;;;14.01;96.60
9822;BME280;4950;46.042;14.472;2023-05-20T02:35:17;98212.38;;;13.99;96.41
9822;BME280;4950;46.042;14.472;2023-05-20T02:37:44;98215.41;;;13.96;96.46
9822;BME280;4950;46.042;14.472;2023-05-20T02:40:12;98207.34;;;13.98;96.64
9822;BME280;4950;46.042;14.472;2023-05-20T02:42:39;98217.19;;;13.96;96.84
9822;BME280;4950;46.042;14.472;2023-05-20T02:45:07;98215.63;;;14.01;96.54
9822;BME280;4950;46.042;14.472;2023-05-20T02:47:33;98218.22;;;14.01;95.57
9822;BME280;4950;46.042;14.472;2023-05-20T02:50:01;98210.28;;;13.88;95.88
9822;BME280;4950;46.042;14.472;2023-05-20T02:52:28;98207.25;;;13.85;96.32
9822;BME280;4950;46.042;14.472;2023-05-20T02:54:55;98206.56;;;13.76;96.99
9822;BME280;4950;46.042;14.472;2023-05-20T02:57:21;98204.06;;;13.68;97.59
9822;BME280;4950;46.042;14.472;2023-05-20T02:59:48;98212.53;;;13.70;97.77
9822;BME280;4950;46.042;14.472;2023-05-20T03:02:14;98209.13;;;13.69;97.95
9822;BME280;4950;46.042;14.472;2023-05-20T03:04:41;98200.47;;;13.69;98.04
9822;BME280;4950;46.042;14.472;2023-05-20T03:07:12;98200.53;;;13.75;98.30
9822;BME280;4950;46.042;14.472;2023-05-20T03:09:38;98201.78;;;13.79;98.05
9822;BME280;4950;46.042;14.472;2023-05-20T03:12:05;98200.38;;;13.77;97.78
9822;BME280;4950;46.042;14.472;2023-05-20T03:14:32;98197.75;;;13.77;97.96
9822;BME280;4950;46.042;14.472;2023-05-20T03:16:58;98181.53;;;13.81;98.24
9822;BME280;4950;46.042;14.472;2023-05-20T03:19:25;98196.16;;;13.82;98.31
9822;BME280;4950;46.042;14.472;2023-05-20T03:21:51;98191.78;;;13.83;98.29
9822;BME280;4950;46.042;14.472;2023-05-20T03:24:19;98190.41;;;13.87;98.25
9822;BME280;4950;46.042;14.472;2023-05-20T03:26:47;98188.59;;;13.88;98.37
9822;BME280;4950;46.042;14.472;2023-05-20T03:29:15;98189.03;;;13.91;98.17
9822;BME280;4950;46.042;14.472;2023-05-20T03:31:42;98189.22;;;13.90;97.97
9822;BME280;4950;46.042;14.472;2023-05-20T03:34:09;98191.81;;;13.90;98.06
9822;BME280;4950;46.042;14.472;2023-05-20T03:36:35;98184.63;;;13.92;97.92
9822;BME280;4950;46.042;14.472;2023-05-20T03:39:02;98180.59;;;13.89;98.15
9822;BME280;4950;46.042;14.472;2023-05-20T03:41:30;98187.41;;;13.90;98.06
9822;BME280;4950;46.042;14.472;2023-05-20T03:43:57;98194.44;;;13.90;97.96
9822;BME280;4950;46.042;14.472;2023-05-20T03:46:24;98195.06;;;13.92;98.44
9822;BME280;4950;46.042;14.472;2023-05-20T03:48:50;98200.91;;;13.94;97.84
9822;BME280;4950;46.042;14.472;2023-05-20T03:51:17;98201.91;;;13.93;97.97
9822;BME280;4950;46.042;14.472;2023-05-20T03:53:43;98207.13;;;13.93;97.74
9822;BME280;4950;46.042;14.472;2023-05-20T03:56:10;98200.09;;;13.93;98.02
9822;BME280;4950;46.042;14.472;2023-05-20T03:58:38;98207.13;;;13.93;97.70
9822;BME280;4950;46.042;14.472;2023-05-20T04:01:05;98202.72;;;13.93;97.92
9822;BME280;4950;46.042;14.472;2023-05-20T04:03:31;98204.34;;;13.94;97.86
9822;BME280;4950;46.042;14.472;2023-05-20T04:05:58;98204.94;;;13.96;98.10
9822;BME280;4950;46.042;14.472;2023-05-20T04:08:25;98201.94;;;13.99;98.14
9822;BME280;4950;46.042;14.472;2023-05-20T04:10:54;98201.59;;;14.02;98.00
9822;BME280;4950;46.042;14.472;2023-05-20T04:13:23;98205.19;;;14.01;98.08
9822;BME280;4950;46.042;14.472;2023-05-20T04:15:51;98208.19;;;13.98;98.01
9822;BME280;4950;46.042;14.472;2023-05-20T04:18:18;98204.75;;;13.98;98.05
9822;BME280;4950;46.042;14.472;2023-05-20T04:20:44;98208.97;;;13.99;98.34
9822;BME280;4950;46.042;14.472;2023-05-20T04:23:11;98217.63;;;13.99;98.04
9822;BME280;4950;46.042;14.472;2023-05-20T04:25:38;98213.81;;;14.02;97.99
9822;BME280;4950;46.042;14.472;2023-05-20T04:28:05;98216.41;;;14.02;97.80
9822;BME280;4950;46.042;14.472;2023-05-20T04:30:32;98209.97;;;13.98;97.64
9822;BME280;4950;46.042;14.472;2023-05-20T04:33:01;98213.19;;;14.00;97.93
9822;BME280;4950;46.042;14.472;2023-05-20T04:35:28;98205.56;;;13.98;97.92
9822;BME280;4950;46.042;14.472;2023-05-20T04:37:54;98209.22;;;14.04;97.72
9822;BME280;4950;46.042;14.472;2023-05-20T04:40:21;98207.59;;;14.03;97.49
9822;BME280;4950;46.042;14.472;2023-05-20T04:42:48;98209.41;;;14.02;97.72
9822;BME280;4950;46.042;14.472;2023-05-20T04:45:15;98211.03;;;14.03;97.91
9822;BME280;4950;46.042;14.472;2023-05-20T04:47:42;98209.84;;;14.06;98.00
9822;BME280;4950;46.042;14.472;2023-05-20T04:50:11;98210.47;;;14.08;98.01
9822;BME280;4950;46.042;14.472;2023-05-20T04:52:39;98207.88;;;14.08;97.88
9822;BME280;4950;46.042;14.472;2023-05-20T04:55:08;98206.06;;;14.09;98.11
9822;BME280;4950;46.042;14.472;2023-05-20T04:57:35;98200.22;;;14.07;98.28
9822;BME280;4950;46.042;14.472;2023-05-20T05:00:03;98190.56;;;14.07;98.40
9822;BME280;4950;46.042;14.472;2023-05-20T05:02:32;98192.41;;;14.13;98.38
9822;BME280;4950;46.042;14.472;2023-05-20T05:04:58;98186.84;;;14.16;98.02
9822;BME280;4950;46.042;14.472;2023-05-20T05:07:26;98189.25;;;14.18;98.19
9822;BME280;4950;46.042;14.472;2023-05-20T05:09:53;98193.28;;;14.20;98.34
9822;BME280;4950;46.042;14.472;2023-05-20T05:12:20;98194.38;;;14.33;98.13
9822;BME280;4950;46.042;14.472;2023-05-20T05:14:46;98192.97;;;14.30;97.08
9822;BME280;4950;46.042;14.472;2023-05-20T05:17:13;98194.53;;;14.25;97.33
9822;BME280;4950;46.042;14.472;2023-05-20T05:19:39;98196.09;;;14.19;97.62
9822;BME280;4950;46.042;14.472;2023-05-20T05:22:06;98194.84;;;14.15;97.92
9822;BME280;4950;46.042;14.472;2023-05-20T05:24:34;98196.84;;;14.13;98.55
9822;BME280;4950;46.042;14.472;2023-05-20T05:27:00;98193.66;;;14.17;98.55
9822;BME280;4950;46.042;14.472;2023-05-20T05:29:27;98179.03;;;14.23;98.70
9822;BME280;4950;46.042;14.472;2023-05-20T05:31:53;98183.31;;;14.31;98.66
9822;BME280;4950;46.042;14.472;2023-05-20T05:34:20;98188.59;;;14.37;98.64
9822;BME280;4950;46.042;14.472;2023-05-20T05:36:46;98190.44;;;14.44;98.53
9822;BME280;4950;46.042;14.472;2023-05-20T05:39:13;98186.25;;;14.49;98.17
9822;BME280;4950;46.042;14.472;2023-05-20T05:41:41;98184.28;;;14.51;98.12
9822;BME280;4950;46.042;14.472;2023-05-20T05:44:07;98183.53;;;14.57;97.68
9822;BME280;4950;46.042;14.472;2023-05-20T05:46:34;98188.97;;;14.63;97.60
9822;BME280;4950;46.042;14.472;2023-05-20T05:49:01;98182.56;;;14.65;97.41
9822;BME280;4950;46.042;14.472;2023-05-20T05:51:27;98191.44;;;14.71;97.17
9822;BME280;4950;46.042;14.472;2023-05-20T05:53:55;98195.09;;;14.76;96.66
9822;BME280;4950;46.042;14.472;2023-05-20T05:56:21;98189.28;;;14.81;96.27
9822;BME280;4950;46.042;14.472;2023-05-20T05:58:49;98193.53;;;14.89;95.98
9822;BME280;4950;46.042;14.472;2023-05-20T06:01:16;98191.97;;;14.94;95.56
9822;BME280;4950;46.042;14.472;2023-05-20T06:03:42;98189.56;;;14.99;94.31
9822;BME280;4950;46.042;14.472;2023-05-20T06:06:09;98192.75;;;14.95;94.77
9822;BME280;4950;46.042;14.472;2023-05-20T06:08:35;98194.38;;;14.96;94.73
9822;BME280;4950;46.042;14.472;2023-05-20T06:11:02;98192.75;;;14.95;94.60
9822;BME280;4950;46.042;14.472;2023-05-20T06:13:28;98194.56;;;14.94;95.07
9822;BME280;4950;46.042;14.472;2023-05-20T06:15:56;98192.41;;;15.05;94.61
9822;BME280;4950;46.042;14.472;2023-05-20T06:18:23;98197.81;;;15.03;95.14
9822;BME280;4950;46.042;14.472;2023-05-20T06:20:54;98202.25;;;15.03;95.02
9822;BME280;4950;46.042;14.472;2023-05-20T06:23:20;98210.47;;;14.99;94.76
9822;BME280;4950;46.042;14.472;2023-05-20T06:25:47;98212.72;;;15.03;94.69
9822;BME280;4950;46.042;14.472;2023-05-20T06:28:14;98212.34;;;15.06;94.22
9822;BME280;4950;46.042;14.472;2023-05-20T06:30:40;98220.75;;;15.01;94.30
9822;BME280;4950;46.042;14.472;2023-05-20T06:33:08;98215.31;;;15.03;95.02
9822;BME280;4950;46.042;14.472;2023-05-20T06:35:35;98219.13;;;15.00;95.03
9822;BME280;4950;46.042;14.472;2023-05-20T06:38:02;98221.34;;;15.03;95.62
9822;BME280;4950;46.042;14.472;2023-05-20T06:40:28;98215.56;;;15.08;95.39
9822;BME280;4950;46.042;14.472;2023-05-20T06:42:55;98213.19;;;15.19;95.72
9822;BME280;4950;46.042;14.472;2023-05-20T06:45:22;98218.69;;;15.38;94.38
9822;BME280;4950;46.042;14.472;2023-05-20T06:47:48;98207.19;;;15.32;94.00
9822;BME280;4950;46.042;14.472;2023-05-20T06:50:16;98213.56;;;15.16;94.72
9822;BME280;4950;46.042;14.472;2023-05-20T06:52:43;98215.16;;;15.11;95.99
9822;BME280;4950;46.042;14.472;2023-05-20T06:55:10;98213.34;;;15.11;96.69
9822;BME280;4950;46.042;14.472;2023-05-20T06:57:37;98201.50;;;15.15;96.91
9822;BME280;4950;46.042;14.472;2023-05-20T07:00:04;98199.50;;;15.17;96.08
9822;BME280;4950;46.042;14.472;2023-05-20T07:02:32;98191.63;;;15.11;96.50
9822;BME280;4950;46.042;14.472;2023-05-20T07:04:59;98196.66;;;15.12;96.77
9822;BME280;4950;46.042;14.472;2023-05-20T07:07:27;98194.28;;;15.24;96.17
9822;BME280;4950;46.042;14.472;2023-05-20T07:09:53;98195.28;;;15.23;95.86
9822;BME280;4950;46.042;14.472;2023-05-20T07:12:20;98185.84;;;15.29;95.66
9822;BME280;4950;46.042;14.472;2023-05-20T07:14:46;98184.25;;;15.34;95.25
9822;BME280;4950;46.042;14.472;2023-05-20T07:17:13;98179.44;;;15.31;95.40
9822;BME280;4950;46.042;14.472;2023-05-20T07:19:40;98185.84;;;15.29;95.61
9822;BME280;4950;46.042;14.472;2023-05-20T07:22:06;98181.63;;;15.34;96.42
9822;BME280;4950;46.042;14.472;2023-05-20T07:24:35;98178.81;;;15.36;95.79
9822;BME280;4950;46.042;14.472;2023-05-20T07:27:03;98178.81;;;15.36;95.56
9822;BME280;4950;46.042;14.472;2023-05-20T07:29:30;98176.03;;;15.37;95.67
9822;BME280;4950;46.042;14.472;2023-05-20T07:31:57;98179.25;;;15.39;95.87
9822;BME280;4950;46.042;14.472;2023-05-20T07:34:23;98180.03;;;15.40;95.86
9822;BME280;4950;46.042;14.472;2023-05-20T07:36:50;98181.84;;;15.39;96.54
9822;BME280;4950;46.042;14.472;2023-05-20T07:39:17;98177.25;;;15.42;96.52
9822;BME280;4950;46.042;14.472;2023-05-20T07:41:45;98184.66;;;15.45;96.80
9822;BME280;4950;46.042;14.472;2023-05-20T07:44:12;98177.25;;;15.42;97.05
9822;BME280;4950;46.042;14.472;2023-05-20T07:46:40;98177.84;;;15.44;97.15
9822;BME280;4950;46.042;14.472;2023-05-20T07:49:07;98174.44;;;15.50;97.37
9822;BME280;4950;46.042;14.472;2023-05-20T07:51:33;98178.06;;;15.49;97.07
9822;BME280;4950;46.042;14.472;2023-05-20T07:54:00;98175.22;;;15.50;97.28
9822;BME280;4950;46.042;14.472;2023-05-20T07:56:27;98168.81;;;15.59;96.97
9822;BME280;4950;46.042;14.472;2023-05-20T07:58:56;98171.03;;;15.69;96.91
9822;BME280;4950;46.042;14.472;2023-05-20T08:01:23;98170.25;;;15.69;96.81
9822;BME280;4950;46.042;14.472;2023-05-20T08:03:50;98166.22;;;15.66;96.33
9822;BME280;4950;46.042;14.472;2023-05-20T08:06:17;98160.75;;;15.68;96.49
9822;BME280;4950;46.042;14.472;2023-05-20T08:08:45;98155.78;;;15.73;96.15
9822;BME280;4950;46.042;14.472;2023-05-20T08:11:12;98148.75;;;15.80;96.41
9822;BME280;4950;46.042;14.472;2023-05-20T08:13:39;98147.34;;;15.84;95.82
9822;BME280;4950;46.042;14.472;2023-05-20T08:16:07;98154.16;;;15.98;96.04
9822;BME280;4950;46.042;14.472;2023-05-20T08:18:34;98152.16;;;16.07;95.31
9822;BME280;4950;46.042;14.472;2023-05-20T08:21:02;98144.88;;;16.23;95.04
9822;BME280;4950;46.042;14.472;2023-05-20T08:23:28;98144.47;;;16.26;94.44
9822;BME280;4950;46.042;14.472;2023-05-20T08:25:55;98146.69;;;16.29;93.85
9822;BME280;4950;46.042;14.472;2023-05-20T08:28:25;98143.66;;;16.38;93.80
9822;BME280;4950;46.042;14.472;2023-05-20T08:30:52;98154.13;;;16.45;93.87
9822;BME280;4950;46.042;14.472;2023-05-20T08:33:20;98158.53;;;16.58;93.44
9822;BME280;4950;46.042;14.472;2023-05-20T08:35:47;98156.09;;;16.70;92.89
9822;BME280;4950;46.042;14.472;2023-05-20T08:38:14;98151.44;;;16.72;91.78
9822;BME280;4950;46.042;14.472;2023-05-20T08:40:41;98147.59;;;16.74;92.49
9822;BME280;4950;46.042;14.472;2023-05-20T08:43:08;98141.94;;;16.84;92.33
9822;BME280;4950;46.042;14.472;2023-05-20T08:45:37;98138.28;;;16.85;90.89
9822;BME280;4950;46.042;14.472;2023-05-20T08:48:04;98134.66;;;16.86;90.90
9822;BME280;4950;46.042;14.472;2023-05-20T08:50:32;98132.63;;;16.88;91.20
9822;BME280;4950;46.042;14.472;2023-05-20T08:52:59;98125.31;;;16.97;90.62
9822;BME280;4950;46.042;14.472;2023-05-20T08:55:42;98130.34;;;17.05;90.11
9822;BME280;4950;46.042;14.472;2023-05-20T08:58:09;98131.09;;;17.12;89.86
9822;BME280;4950;46.042;14.472;2023-05-20T09:00:35;98126.44;;;17.21;88.98
9822;BME280;4950;46.042;14.472;2023-05-20T09:03:02;98121.97;;;17.28;88.76
9822;BME280;4950;46.042;14.472;2023-05-20T09:05:29;98117.88;;;17.32;84.37
9822;BME280;4950;46.042;14.472;2023-05-20T09:08:05;98119.59;;;17.45;82.25
9822;BME280;4950;46.042;14.472;2023-05-20T09:10:32;98121.50;;;17.63;81.55
9822;BME280;4950;46.042;14.472;2023-05-20T09:12:59;98123.03;;;17.77;81.74
9822;BME280;4950;46.042;14.472;2023-05-20T09:15:26;98120.66;;;17.94;80.94
9822;BME280;4950;46.042;14.472;2023-05-20T09:17:53;98122.19;;;18.09;78.48
9822;BME280;4950;46.042;14.472;2023-05-20T09:20:20;98120.84;;;18.18;77.95
9822;BME280;4950;46.042;14.472;2023-05-20T09:22:50;98126.22;;;18.30;77.40
9822;BME280;4950;46.042;14.472;2023-05-20T09:25:19;98125.72;;;18.40;77.08
9822;BME280;4950;46.042;14.472;2023-05-20T09:27:46;98139.16;;;18.50;76.37
9822;BME280;4950;46.042;14.472;2023-05-20T09:30:12;98133.81;;;18.57;76.15
9822;BME280;4950;46.042;14.472;2023-05-20T09:32:39;98136.59;;;18.62;75.42
9822;BME280;4950;46.042;14.472;2023-05-20T09:35:06;98124.63;;;18.66;74.54
9822;BME280;4950;46.042;14.472;2023-05-20T09:37:34;98130.03;;;18.71;74.35
9822;BME280;4950;46.042;14.472;2023-05-20T09:40:03;98128.41;;;18.88;76.49
9822;BME280;4950;46.042;14.472;2023-05-20T09:42:33;98138.78;;;19.02;73.89
9822;BME280;4950;46.042;14.472;2023-05-20T09:45:01;98136.44;;;19.12;72.59
9822;BME280;4950;46.042;14.472;2023-05-20T09:47:28;98129.91;;;19.14;72.50
9822;BME280;4950;46.042;14.472;2023-05-20T09:49:56;98137.59;;;19.16;71.78
9822;BME280;4950;46.042;14.472;2023-05-20T09:52:23;98137.59;;;19.16;70.64
9822;BME280;4950;46.042;14.472;2023-05-20T09:54:53;98126.59;;;19.19;70.61
9822;BME280;4950;46.042;14.472;2023-05-20T09:57:21;98129.38;;;19.24;70.36
9822;BME280;4950;46.042;14.472;2023-05-20T09:59:50;98126.06;;;19.29;70.14
9822;BME280;4950;46.042;14.472;2023-05-20T10:02:18;98131.13;;;19.30;69.74
9822;BME280;4950;46.042;14.472;2023-05-20T10:04:48;98128.63;;;19.36;69.05
9822;BME280;4950;46.042;14.472;2023-05-20T10:07:42;98131.47;;;19.34;68.88
9822;BME280;4950;46.042;14.472;2023-05-20T10:10:21;98139.72;;;19.38;67.69
9822;BME280;4950;46.042;14.472;2023-05-20T10:13:02;98140.75;;;19.37;67.22
9822;BME280;4950;46.042;14.472;2023-05-20T10:15:39;98139.94;;;19.36;68.26
9822;BME280;4950;46.042;14.472;2023-05-20T10:18:14;98131.25;;;19.36;68.64
9822;BME280;4950;46.042;14.472;2023-05-20T10:20:45;98133.31;;;19.33;67.87
9822;BME280;4950;46.042;14.472;2023-05-20T10:23:20;98129.41;;;19.36;67.48
9822;BME280;4950;46.042;14.472;2023-05-20T10:25:51;98125.88;;;19.42;67.97
9822;BME280;4950;46.042;14.472;2023-05-20T10:28:27;98111.94;;;19.53;67.75
9822;BME280;4950;46.042;14.472;2023-05-20T10:30:56;98113.88;;;19.58;66.80
9822;BME280;4950;46.042;14.472;2023-05-20T10:33:24;98102.44;;;19.64;67.14
9822;BME280;4950;46.042;14.472;2023-05-20T10:35:52;98102.34;;;19.71;66.85
9822;BME280;4950;46.042;14.472;2023-05-20T10:38:19;98095.41;;;19.77;65.75
9822;BME280;4950;46.042;14.472;2023-05-20T10:40:46;98096.34;;;19.82;63.70
9822;BME280;4950;46.042;14.472;2023-05-20T10:43:14;98095.50;;;19.93;63.71
9822;BME280;4950;46.042;14.472;2023-05-20T10:45:48;98092.19;;;20.10;63.88
9822;BME280;4950;46.042;14.472;2023-05-20T10:48:26;98097.34;;;20.17;63.81
9822;BME280;4950;46.042;14.472;2023-05-20T10:50:54;98089.56;;;20.22;62.58
9822;BME280;4950;46.042;14.472;2023-05-20T10:53:23;98089.97;;;20.30;63.56
9822;BME280;4950;46.042;14.472;2023-05-20T10:55:50;98089.97;;;20.42;62.43
9822;BME280;4950;46.042;14.472;2023-05-20T10:58:18;98080.22;;;20.55;62.88
9822;BME280;4950;46.042;14.472;2023-05-20T11:00:46;98078.03;;;20.63;63.80
9822;BME280;4950;46.042;14.472;2023-05-20T11:03:14;98083.75;;;20.72;61.70
9822;BME280;4950;46.042;14.472;2023-05-20T11:05:43;98074.72;;;20.85;60.18
9822;BME280;4950;46.042;14.472;2023-05-20T11:08:11;98064.28;;;20.90;60.81
9822;BME280;4950;46.042;14.472;2023-05-20T11:10:38;98081.03;;;20.96;59.65
9822;BME280;4950;46.042;14.472;2023-05-20T11:13:04;98074.44;;;20.98;58.81
9822;BME280;4950;46.042;14.472;2023-05-20T11:15:33;98069.19;;;20.98;57.52
9822;BME280;4950;46.042;14.472;2023-05-20T11:18:01;98066.31;;;21.00;56.94
9822;BME280;4950;46.042;14.472;2023-05-20T11:20:30;98069.97;;;20.99;57.92
9822;BME280;4950;46.042;14.472;2023-05-20T11:23:01;98059.75;;;21.02;57.77
9822;BME280;4950;46.042;14.472;2023-05-20T11:25:28;98063.28;;;21.08;57.77
9822;BME280;4950;46.042;14.472;2023-05-20T11:27:55;98060.09;;;21.23;55.99
9822;BME280;4950;46.042;14.472;2023-05-20T11:30:22;98063.94;;;21.32;57.14
9822;BME280;4950;46.042;14.472;2023-05-20T11:32:56;98053.78;;;21.41;55.51
9822;BME280;4950;46.042;14.472;2023-05-20T11:35:23;98058.50;;;21.39;56.50
9822;BME280;4950;46.042;14.472;2023-05-20T11:37:57;98055.19;;;21.43;56.46
9822;BME280;4950;46.042;14.472;2023-05-20T11:40:27;98058.47;;;21.51;56.20
9822;BME280;4950;46.042;14.472;2023-05-20T11:42:54;98059.72;;;21.65;56.20
9822;BME280;4950;46.042;14.472;2023-05-20T11:45:22;98047.16;;;21.72;56.53
9822;BME280;4950;46.042;14.472;2023-05-20T11:47:59;98051.38;;;21.90;55.67
9822;BME280;4950;46.042;14.472;2023-05-20T11:50:26;98042.31;;;22.03;54.48
9822;BME280;4950;46.042;14.472;2023-05-20T11:52:59;98050.13;;;22.15;55.11
9822;BME280;4950;46.042;14.472;2023-05-20T11:55:27;98041.22;;;22.21;53.91
9822;BME280;4950;46.042;14.472;2023-05-20T11:57:54;98044.19;;;22.24;54.82
9822;BME280;4950;46.042;14.472;2023-05-20T12:00:22;98041.84;;;22.28;55.24
9822;BME280;4950;46.042;14.472;2023-05-20T12:02:50;98032.88;;;22.29;55.01
9822;BME280;4950;46.042;14.472;2023-05-20T12:05:17;98032.69;;;22.36;54.14
9822;BME280;4950;46.042;14.472;2023-05-20T12:07:44;98041.78;;;22.45;55.15
9822;BME280;4950;46.042;14.472;2023-05-20T12:10:11;98036.00;;;22.48;54.22
9822;BME280;4950;46.042;14.472;2023-05-20T12:12:39;98037.81;;;22.42;53.91
9822;BME280;4950;46.042;14.472;2023-05-20T12:15:06;98030.09;;;22.41;53.63
9822;BME280;4950;46.042;14.472;2023-05-20T12:17:43;98024.25;;;22.39;52.63
9822;BME280;4950;46.042;14.472;2023-05-20T12:20:12;98033.19;;;22.33;52.07
9822;BME280;4950;46.042;14.472;2023-05-20T12:22:39;98037.06;;;22.25;52.83
9822;BME280;4950;46.042;14.472;2023-05-20T12:25:06;98028.41;;;22.13;52.77
9822;BME280;4950;46.042;14.472;2023-05-20T12:27:33;98031.53;;;22.09;53.05
9822;BME280;4950;46.042;14.472;2023-05-20T12:30:01;98020.34;;;22.02;54.03
9822;BME280;4950;46.042;14.472;2023-05-20T12:32:27;98021.81;;;21.93;53.65
9822;BME280;4950;46.042;14.472;2023-05-20T12:34:54;98025.97;;;21.89;54.09
9822;BME280;4950;46.042;14.472;2023-05-20T12:37:21;98023.88;;;21.91;54.40
9822;BME280;4950;46.042;14.472;2023-05-20T12:39:47;98020.69;;;21.89;54.82
9822;BME280;4950;46.042;14.472;2023-05-20T12:42:14;98019.72;;;21.95;55.96
9822;BME280;4950;46.042;14.472;2023-05-20T12:44:41;98016.97;;;22.07;55.03
9822;BME280;4950;46.042;14.472;2023-05-20T12:47:09;98013.28;;;22.08;54.15
9822;BME280;4950;46.042;14.472;2023-05-20T12:49:35;98013.03;;;22.09;54.15
9822;BME280;4950;46.042;14.472;2023-05-20T12:52:02;98006.88;;;22.04;53.82
9822;BME280;4950;46.042;14.472;2023-05-20T12:54:29;98006.31;;;22.02;53.76
9822;BME280;4950;46.042;14.472;2023-05-20T12:56:55;98001.69;;;21.92;54.08
9822;BME280;4950;46.042;14.472;2023-05-20T12:59:22;97995.66;;;21.97;54.52
9822;BME280;4950;46.042;14.472;2023-05-20T13:01:49;97995.94;;;21.95;54.97
9822;BME280;4950;46.042;14.472;2023-05-20T13:04:17;97990.25;;;21.86;55.02
9822;BME280;4950;46.042;14.472;2023-05-20T13:06:46;97993.13;;;21.85;54.88
9822;BME280;4950;46.042;14.472;2023-05-20T13:09:13;97989.38;;;21.81;54.95
9822;BME280;4950;46.042;14.472;2023-05-20T13:11:40;97982.91;;;21.72;54.43